Time;durP1;ratioP1;P1;durP2;ratioP2;P2;SDS_P1;SDS_P2;PMS_P1;PMS_P2;Temp;Humidity;BMP_temperature;BMP_pressure;BME280_temperature;BME280_humidity;BME280_pressure;Samples;Min_cycle;Max_cycle;Signal;HPM_P1;HPM_P2
2024/03/15 00:01:37;;;;;;;;;14.00;13.25;;;;;15.87;78.13;100637.84;5078794;27;45421;-65
2024/03/15 00:04:02;;;;;;;;;17.25;17.00;;;;;15.84;78.15;100632.66;5078445;28;45486;-64
2024/03/15 00:06:29;;;;;;;;;25.50;23.25;;;;;15.84;78.56;100641.59;5078682;27;45404;-65
2024/03/15 00:08:55;;;;;;;;;23.25;21.50;;;;;15.78;78.68;100633.00;5077416;27;45470;-65
2024/03/15 00:11:22;;;;;;;;;23.50;23.50;;;;;15.83;79.26;100639.00;5078859;27;45962;-65
2024/03/15 00:13:48;;;;;;;;;20.75;20.75;;;;;15.79;79.16;100641.00;5078086;27;45452;-65
2024/03/15 00:16:14;;;;;;;;;10.25;8.75;;;;;15.81;79.20;100647.16;5078808;27;45299;-65
2024/03/15 00:18:39;;;;;;;;;9.75;9.75;;;;;15.81;79.54;100654.38;5077884;27;45466;-65
2024/03/15 00:21:05;;;;;;;;;14.50;11.75;;;;;15.82;79.80;100656.09;5078091;27;46281;-65
2024/03/15 00:23:30;;;;;;;;;9.00;7.25;;;;;15.80;79.65;100650.78;5078188;27;45425;-65
2024/03/15 00:25:56;;;;;;;;;11.50;11.50;;;;;15.78;79.96;100654.53;5078321;27;45405;-65
2024/03/15 00:28:21;;;;;;;;;7.00;7.00;;;;;15.75;79.76;100647.44;5077473;27;45301;-65
2024/03/15 00:30:49;;;;;;;;;6.00;6.00;;;;;15.76;79.99;100643.84;5078346;27;46123;-64
2024/03/15 00:33:14;;;;;;;;;11.25;11.25;;;;;15.76;80.13;100645.69;5078180;27;45416;-65
2024/03/15 00:35:42;;;;;;;;;13.00;11.00;;;;;15.73;80.25;100650.22;5078677;27;45346;-65
2024/03/15 00:38:07;;;;;;;;;8.25;8.25;;;;;15.69;80.33;100647.81;5076788;27;45480;-65
2024/03/15 00:40:33;;;;;;;;;7.25;4.50;;;;;15.73;80.67;100658.28;5078372;27;45295;-65
2024/03/15 00:42:58;;;;;;;;;5.00;5.00;;;;;15.72;80.86;100661.09;5077675;28;57160;-65
2024/03/15 00:45:24;;;;;;;;;3.75;3.75;;;;;15.72;80.81;100648.50;5078303;28;45312;-65
2024/03/15 00:47:51;;;;;;;;;7.00;5.75;;;;;15.71;80.87;100652.13;5076920;27;45313;-65
2024/03/15 00:50:17;;;;;;;;;8.00;6.50;;;;;15.74;80.95;100653.81;5081507;27;46334;-65
2024/03/15 00:52:42;;;;;;;;;4.75;4.50;;;;;15.72;81.24;100655.72;5081454;27;45349;-65
2024/03/15 00:55:08;;;;;;;;;5.50;5.00;;;;;15.70;81.23;100663.88;5081662;27;45400;-64
2024/03/15 00:57:34;;;;;;;;;3.25;3.25;;;;;15.70;81.39;100663.88;5080726;27;45632;-65
2024/03/15 00:59:59;;;;;;;;;4.75;4.75;;;;;15.69;81.55;100661.25;5081368;28;45561;-65
2024/03/15 01:02:25;;;;;;;;;4.00;3.50;;;;;15.72;81.32;100667.34;5081383;28;45310;-65
2024/03/15 01:04:51;;;;;;;;;6.00;4.25;;;;;15.73;81.24;100666.38;5080909;27;45492;-65
2024/03/15 01:07:16;;;;;;;;;3.00;3.00;;;;;15.73;81.41;100661.00;5081132;27;46061;-65
2024/03/15 01:09:42;;;;;;;;;4.00;3.50;;;;;15.72;81.55;100656.56;5081215;27;46081;-65
2024/03/15 01:12:07;;;;;;;;;4.00;4.00;;;;;15.70;81.75;100646.84;5081076;28;45320;-65
2024/03/15 01:14:32;;;;;;;;;3.00;3.00;;;;;15.71;81.68;100648.59;5081022;27;45440;-64
2024/03/15 01:16:58;;;;;;;;;2.25;2.25;;;;;15.72;81.86;100651.19;5080873;28;45363;-64
2024/03/15 01:19:26;;;;;;;;;3.00;3.00;;;;;15.71;82.18;100644.06;5096737;27;49870;-65
2024/03/15 01:21:51;;;;;;;;;4.00;4.00;;;;;15.73;82.13;100649.38;5080345;27;45385;-64
2024/03/15 01:24:16;;;;;;;;;4.75;4.75;;;;;15.74;82.18;100653.81;5080379;28;61120;-65
2024/03/15 01:26:43;;;;;;;;;4.00;4.00;;;;;15.74;82.21;100643.91;5079985;27;45805;-65
2024/03/15 01:29:08;;;;;;;;;5.00;4.50;;;;;15.71;82.27;100630.59;5080318;27;46401;-65
2024/03/15 01:31:34;;;;;;;;;4.75;4.00;;;;;15.64;82.36;100625.69;5080382;27;45358;-64
2024/03/15 01:33:59;;;;;;;;;2.00;2.00;;;;;15.72;82.38;100639.56;5081166;28;45409;-65
2024/03/15 01:36:25;;;;;;;;;3.00;3.00;;;;;15.69;82.66;100635.22;5079695;27;45765;-65
2024/03/15 01:38:50;;;;;;;;;3.25;3.00;;;;;15.70;82.49;100636.06;5079052;28;45497;-65
2024/03/15 01:41:15;;;;;;;;;2.00;2.00;;;;;15.64;82.48;100620.28;5079953;27;48405;-65
2024/03/15 01:43:50;;;;;;;;;2.00;2.00;;;;;15.68;82.59;100622.69;5080919;27;45353;-65
2024/03/15 01:46:16;;;;;;;;;3.75;2.75;;;;;15.72;82.59;100628.81;5080775;27;45426;-65
2024/03/15 01:48:42;;;;;;;;;3.25;2.00;;;;;15.68;82.61;100621.84;5080851;27;46102;-65
2024/03/15 01:51:08;;;;;;;;;3.00;3.00;;;;;15.67;82.61;100620.97;5080433;27;45286;-65
2024/03/15 01:53:35;;;;;;;;;2.25;2.25;;;;;15.67;82.92;100622.78;5080141;27;45456;-64
2024/03/15 01:56:00;;;;;;;;;3.00;3.00;;;;;15.69;82.97;100628.97;5080857;27;45430;-65
2024/03/15 01:58:26;;;;;;;;;2.75;2.75;;;;;15.69;83.11;100628.97;5078537;27;45456;-65
2024/03/15 02:00:51;;;;;;;;;4.25;2.75;;;;;15.66;83.29;100629.13;5079843;27;45362;-65
2024/03/15 02:03:16;;;;;;;;;4.50;3.25;;;;;15.67;83.17;100628.16;5078898;27;59373;-65
2024/03/15 02:05:43;;;;;;;;;4.00;1.00;;;;;15.72;83.10;100629.66;5079357;28;62597;-65
2024/03/15 02:08:08;;;;;;;;;2.50;2.00;;;;;15.73;83.05;100627.84;5080717;27;46074;-65
2024/03/15 02:10:34;;;;;;;;;3.25;2.00;;;;;15.73;83.18;100630.53;5083518;27;45409;-64
2024/03/15 02:13:01;;;;;;;;;3.00;2.00;;;;;15.71;83.36;100629.75;5079738;27;45385;-65
2024/03/15 02:15:27;;;;;;;;;1.25;1.25;;;;;15.71;83.16;100632.44;5080251;27;45421;-65
2024/03/15 02:17:53;;;;;;;;;2.00;2.00;;;;;15.72;83.40;100639.56;5080334;27;45252;-65
2024/03/15 02:20:21;;;;;;;;;3.75;3.75;;;;;15.73;83.27;100644.84;5079742;27;45352;-65
2024/03/15 02:22:47;;;;;;;;;3.00;2.75;;;;;15.73;83.39;100633.22;5079889;27;45356;-65
2024/03/15 02:25:13;;;;;;;;;3.00;3.00;;;;;15.74;83.37;100633.13;5079355;27;45570;-65
2024/03/15 02:27:38;;;;;;;;;2.00;2.00;;;;;15.73;83.30;100630.53;5080023;27;46094;-65
2024/03/15 02:30:06;;;;;;;;;3.00;1.25;;;;;15.74;83.50;100629.59;5079969;27;45483;-65
2024/03/15 02:32:32;;;;;;;;;4.00;3.25;;;;;15.66;83.75;100618.38;5079647;27;45326;-65
2024/03/15 02:34:58;;;;;;;;;2.75;2.75;;;;;15.71;83.99;100635.13;5079543;27;45289;-65
2024/03/15 02:37:23;;;;;;;;;3.25;2.00;;;;;15.71;83.72;100633.28;5072366;28;46045;-65
2024/03/15 02:39:51;;;;;;;;;5.00;3.25;;;;;15.70;83.97;100628.88;5078759;28;45267;-65
2024/03/15 02:42:16;;;;;;;;;3.00;3.00;;;;;15.70;83.93;100625.31;5079619;27;45357;-65
2024/03/15 02:44:41;;;;;;;;;3.00;3.00;;;;;15.62;84.05;100617.69;5079898;27;45385;-65
2024/03/15 02:47:07;;;;;;;;;3.75;3.75;;;;;15.68;84.30;100636.16;5079852;27;45392;-64
2024/03/15 02:49:32;;;;;;;;;3.75;2.75;;;;;15.64;84.25;100639.97;5078751;28;63751;-64
2024/03/15 02:51:57;;;;;;;;;3.25;3.25;;;;;15.69;84.38;100647.81;5079189;27;45485;-65
2024/03/15 02:54:26;;;;;;;;;4.00;4.00;;;;;15.66;84.59;100648.84;5079393;27;45379;-65
2024/03/15 02:56:51;;;;;;;;;3.00;3.00;;;;;15.57;84.58;100635.91;5079598;27;46171;-65
2024/03/15 02:59:19;;;;;;;;;3.75;3.00;;;;;15.66;84.83;100647.97;5079506;27;45314;-64
2024/03/15 03:01:46;;;;;;;;;2.75;2.75;;;;;15.61;84.93;100633.91;5079155;27;45362;-64
2024/03/15 03:04:14;;;;;;;;;2.00;1.25;;;;;15.65;85.08;100633.66;5066471;28;45520;-64
2024/03/15 03:06:42;;;;;;;;;3.75;3.00;;;;;15.62;85.12;100630.25;5079715;27;46329;-65
2024/03/15 03:09:09;;;;;;;;;2.00;2.00;;;;;15.65;85.21;100648.91;5079093;27;45243;-64
2024/03/15 03:11:36;;;;;;;;;1.25;1.25;;;;;15.64;85.35;100645.38;5080431;27;45418;-64
2024/03/15 03:14:02;;;;;;;;;2.25;2.00;;;;;15.63;85.46;100651.69;5079488;27;45441;-65
2024/03/15 03:16:27;;;;;;;;;3.25;2.25;;;;;15.61;85.50;100639.28;5079287;27;45991;-65
2024/03/15 03:18:53;;;;;;;;;2.00;2.00;;;;;15.63;85.43;100642.75;5079165;28;51740;-65
2024/03/15 03:21:18;;;;;;;;;2.00;2.00;;;;;15.62;85.48;100643.69;5079483;27;45713;-65
2024/03/15 03:23:44;;;;;;;;;3.25;3.25;;;;;15.67;85.53;100652.38;5078062;27;45381;-65
2024/03/15 03:26:10;;;;;;;;;2.75;2.75;;;;;15.66;85.62;100659.59;5078620;28;53315;-65
2024/03/15 03:28:35;;;;;;;;;1.00;1.00;;;;;15.66;85.50;100662.28;5079244;27;45323;-65
2024/03/15 03:31:00;;;;;;;;;2.75;2.75;;;;;15.68;85.52;100657.69;5079359;27;45449;-65
2024/03/15 03:33:26;;;;;;;;;5.25;3.00;;;;;15.65;85.66;100652.50;5078562;27;45376;-65
2024/03/15 03:35:51;;;;;;;;;3.50;2.00;;;;;15.68;85.62;100654.13;5078869;27;47160;-65
2024/03/15 03:38:17;;;;;;;;;3.00;2.00;;;;;15.67;85.73;100641.63;5075915;28;45247;-64
2024/03/15 03:40:42;;;;;;;;;2.50;1.75;;;;;15.65;85.50;100644.44;5079365;27;45504;-65
2024/03/15 03:43:09;;;;;;;;;2.75;2.00;;;;;15.69;85.38;100643.28;5078255;28;45486;-65
2024/03/15 03:45:35;;;;;;;;;2.00;2.00;;;;;15.69;85.70;100654.06;5078753;27;46207;-64
2024/03/15 03:48:01;;;;;;;;;2.00;2.00;;;;;15.69;85.95;100666.66;5079120;27;45467;-65
2024/03/15 03:50:26;;;;;;;;;1.00;1.00;;;;;15.66;85.79;100651.53;5079053;28;45369;-64
2024/03/15 03:52:52;;;;;;;;;1.75;1.75;;;;;15.68;85.73;100665.75;5078264;27;45696;-64
2024/03/15 03:55:18;;;;;;;;;2.00;2.00;;;;;15.67;85.92;100655.97;5078106;27;46195;-64
2024/03/15 03:57:44;;;;;;;;;1.25;1.25;;;;;15.64;85.92;100648.06;5078887;27;45605;-65
2024/03/15 04:00:16;;;;;;;;;1.00;1.00;;;;;15.66;86.09;100661.44;5078824;28;45452;-65
2024/03/15 04:02:45;;;;;;;;;1.00;1.00;;;;;15.67;85.97;100655.97;5078219;27;45657;-65
2024/03/15 04:05:15;;;;;;;;;2.00;2.00;;;;;15.67;85.98;100655.06;5078610;27;45584;-65
2024/03/15 04:07:44;;;;;;;;;1.00;1.00;;;;;15.64;86.10;100656.13;5078741;28;45579;-64
2024/03/15 04:10:09;;;;;;;;;2.00;2.00;;;;;15.64;86.14;100660.66;5081703;27;45501;-65
2024/03/15 04:12:35;;;;;;;;;1.00;1.00;;;;;15.61;86.14;100653.59;5077843;27;45323;-65
2024/03/15 04:15:05;;;;;;;;;1.75;1.75;;;;;15.64;85.95;100663.34;5078486;27;46984;-65
2024/03/15 04:17:30;;;;;;;;;1.50;1.00;;;;;15.63;85.97;100665.13;5077929;27;45385;-64
2024/03/15 04:19:57;;;;;;;;;2.00;2.00;;;;;15.56;86.30;100656.53;5078567;28;45391;-64
2024/03/15 04:22:25;;;;;;;;;2.25;2.25;;;;;15.59;86.45;100657.34;5077581;27;45381;-65
2024/03/15 04:24:51;;;;;;;;;1.25;1.25;;;;;15.63;86.28;100669.66;5077291;28;47065;-65
2024/03/15 04:27:17;;;;;;;;;1.50;1.50;;;;;15.60;86.26;100665.31;5081875;27;45498;-65
2024/03/15 04:29:42;;;;;;;;;2.00;2.00;;;;;15.62;86.24;100666.13;5081963;27;45325;-65
2024/03/15 04:32:09;;;;;;;;;2.00;2.00;;;;;15.56;86.25;100664.59;5081544;27;45391;-65
2024/03/15 04:34:43;;;;;;;;;2.25;1.50;;;;;15.56;86.25;100661.91;5081777;27;46158;-65
2024/03/15 04:37:15;;;;;;;;;3.75;2.00;;;;;15.59;86.39;100662.72;5078982;27;45514;-65
2024/03/15 04:39:40;;;;;;;;;2.00;1.50;;;;;15.63;86.28;100670.53;5081545;27;45559;-64
2024/03/15 04:42:05;;;;;;;;;5.00;2.00;;;;;15.54;86.20;100655.75;5081004;27;45508;-65
2024/03/15 04:44:37;;;;;;;;;2.50;2.00;;;;;15.61;86.13;100664.38;5081769;28;46385;-65
2024/03/15 04:47:04;;;;;;;;;2.00;1.25;;;;;15.60;86.26;100664.44;5074088;28;45504;-64
2024/03/15 04:49:29;;;;;;;;;1.00;1.00;;;;;15.62;86.47;100668.81;5081998;27;45434;-65
2024/03/15 04:51:55;;;;;;;;;1.25;1.25;;;;;15.62;86.35;100671.50;5080967;27;45528;-65
2024/03/15 04:54:21;;;;;;;;;2.00;2.00;;;;;15.63;86.22;100677.72;5081497;27;46216;-64
2024/03/15 04:56:47;;;;;;;;;1.00;1.00;;;;;15.62;86.31;100670.59;5081081;27;45467;-65
2024/03/15 04:59:12;;;;;;;;;2.75;2.00;;;;;15.60;86.38;100681.44;5081768;27;45342;-64
2024/03/15 05:01:38;;;;;;;;;2.00;2.00;;;;;15.60;86.39;100677.91;5080838;27;45242;-65
2024/03/15 05:04:03;;;;;;;;;1.50;1.50;;;;;15.60;86.32;100688.66;5081146;28;63207;-65
2024/03/15 05:06:30;;;;;;;;;2.00;2.00;;;;;15.57;86.46;100679.81;5080961;27;57723;-65
2024/03/15 05:08:56;;;;;;;;;1.25;1.25;;;;;15.61;86.64;100691.28;5081612;27;45392;-64
2024/03/15 05:11:21;;;;;;;;;2.00;2.00;;;;;15.56;86.20;100686.13;5080655;27;45367;-64
2024/03/15 05:13:46;;;;;;;;;1.00;1.00;;;;;15.53;86.30;100672.84;5080605;27;46947;-65
2024/03/15 05:16:14;;;;;;;;;1.50;1.50;;;;;15.57;86.02;100670.88;5081229;27;45523;-65
2024/03/15 05:18:40;;;;;;;;;2.00;2.00;;;;;15.63;86.26;100688.50;5081491;27;45443;-65
2024/03/15 05:21:06;;;;;;;;;1.00;1.00;;;;;15.62;86.29;100687.63;5081339;27;45619;-65
2024/03/15 05:23:31;;;;;;;;;1.50;1.50;;;;;15.63;86.32;100680.44;5080481;27;46102;-65
2024/03/15 05:25:56;;;;;;;;;2.00;2.00;;;;;15.63;86.24;100683.13;5079197;28;45401;-64
2024/03/15 05:28:22;;;;;;;;;2.00;2.00;;;;;15.64;86.36;100691.09;5081140;27;45587;-65
2024/03/15 05:30:48;;;;;;;;;2.25;2.25;;;;;15.65;86.19;100692.84;5080754;27;45375;-64
2024/03/15 05:33:14;;;;;;;;;1.75;1.75;;;;;15.66;86.29;100691.03;5079691;27;63154;-65
2024/03/15 05:35:40;;;;;;;;;1.75;1.75;;;;;15.63;85.90;100689.34;5079899;27;45337;-65
2024/03/15 05:38:05;;;;;;;;;2.00;2.00;;;;;15.68;86.06;100691.81;5078220;27;45437;-65
2024/03/15 05:40:32;;;;;;;;;2.75;2.00;;;;;15.65;85.98;100692.84;5080894;27;45525;-65
2024/03/15 05:42:58;;;;;;;;;2.00;2.00;;;;;15.66;86.11;100691.03;5079501;27;62234;-64
2024/03/15 05:45:24;;;;;;;;;0.75;0.75;;;;;15.63;85.89;100691.19;5080088;27;45541;-64
2024/03/15 05:47:53;;;;;;;;;1.00;1.00;;;;;15.62;85.88;100694.81;5080811;27;45323;-65
2024/03/15 05:50:18;;;;;;;;;2.00;2.00;;;;;15.61;86.05;100696.66;5080921;27;45417;-65
2024/03/15 05:52:44;;;;;;;;;2.25;2.00;;;;;15.61;86.09;100701.16;5079839;27;46258;-65
2024/03/15 05:55:09;;;;;;;;;1.00;1.00;;;;;15.62;86.03;100701.09;5080364;27;45428;-65
2024/03/15 05:57:34;;;;;;;;;1.75;1.75;;;;;15.63;86.06;100702.81;5080705;27;45270;-65
2024/03/15 06:00:10;;;;;;;;;1.00;1.00;;;;;15.64;86.05;100709.09;5080201;27;45515;-65
2024/03/15 06:02:35;;;;;;;;;2.00;2.00;;;;;15.61;85.77;100707.41;5079856;27;46391;-65
2024/03/15 06:05:00;;;;;;;;;3.50;2.75;;;;;15.62;86.07;100701.09;5080513;28;45248;-65
2024/03/15 06:07:26;;;;;;;;;1.00;1.00;;;;;15.66;86.04;100707.16;5080553;27;45297;-65
2024/03/15 06:09:51;;;;;;;;;3.25;1.75;;;;;15.64;85.89;100707.25;5078860;27;49426;-65
2024/03/15 06:12:16;;;;;;;;;3.00;3.00;;;;;15.62;85.71;100705.56;5079785;28;51363;-65
2024/03/15 06:14:42;;;;;;;;;3.25;2.25;;;;;15.61;85.74;100706.56;5080128;27;45455;-64
2024/03/15 06:17:07;;;;;;;;;1.00;1.00;;;;;15.57;85.83;100714.78;5080208;27;45505;-65
2024/03/15 06:19:33;;;;;;;;;4.00;3.00;;;;;15.58;85.97;100723.72;5079212;27;55467;-65
2024/03/15 06:21:59;;;;;;;;;1.75;1.75;;;;;15.59;85.63;100735.38;5079429;27;46484;-65
2024/03/15 06:24:25;;;;;;;;;1.00;1.00;;;;;15.55;85.63;100730.16;5080099;27;45392;-65
2024/03/15 06:26:53;;;;;;;;;2.25;2.00;;;;;15.59;85.69;100735.38;5080018;27;45563;-67
2024/03/15 06:29:20;;;;;;;;;3.50;2.00;;;;;15.49;85.77;100730.47;5078867;27;45496;-67
2024/03/15 06:31:48;;;;;;;;;1.00;1.00;;;;;15.60;85.65;100753.22;5077399;27;47092;-67
2024/03/15 06:34:13;;;;;;;;;4.00;2.50;;;;;15.60;85.49;100759.47;5078534;27;45376;-67
2024/03/15 06:36:42;;;;;;;;;3.00;2.00;;;;;15.60;85.35;100751.41;5077020;28;45673;-67
2024/03/15 06:39:24;;;;;;;;;3.75;2.50;;;;;15.55;85.39;100754.34;5070937;27;45567;-66
2024/03/15 06:41:51;;;;;;;;;1.25;1.25;;;;;15.60;85.23;100753.22;5076574;28;45720;-66
2024/03/15 06:47:04;;;;;;;;;1.75;1.75;;;;;15.52;84.89;100748.28;5073153;27;45454;-67
2024/03/15 06:49:43;;;;;;;;;1.75;1.50;;;;;15.53;84.64;100758.94;5078187;28;45337;-67
2024/03/15 06:54:55;;;;;;;;;2.00;1.00;;;;;15.41;84.78;100731.81;5075884;27;45816;-66
2024/03/15 06:57:20;;;;;;;;;1.00;1.00;;;;;15.52;84.45;100750.97;5079255;27;45501;-67
2024/03/15 06:59:46;;;;;;;;;1.00;1.00;;;;;15.53;84.11;100752.69;5078865;28;45614;-67
2024/03/15 07:02:11;;;;;;;;;1.00;1.00;;;;;15.52;84.21;100761.72;5078435;28;69094;-67
2024/03/15 07:04:36;;;;;;;;;2.50;1.00;;;;;15.53;83.95;100767.00;5078748;27;45468;-67
2024/03/15 07:07:02;;;;;;;;;3.00;0.25;;;;;15.53;84.00;100763.44;5078459;28;62965;-67
2024/03/15 07:09:27;;;;;;;;;3.00;1.25;;;;;15.48;84.06;100752.06;5078388;27;50639;-67
2024/03/15 07:11:53;;;;;;;;;1.00;1.00;;;;;15.53;83.97;100771.53;5085132;27;46195;-67
2024/03/15 07:14:18;;;;;;;;;0.00;0.00;;;;;15.43;83.75;100752.28;5079150;28;51282;-67
2024/03/15 07:16:43;;;;;;;;;1.00;0.00;;;;;15.52;83.85;100770.66;5078305;27;46210;-67
2024/03/15 07:19:08;;;;;;;;;2.00;1.00;;;;;15.53;83.89;100767.00;5078967;28;48884;-67
2024/03/15 07:21:36;;;;;;;;;1.00;1.00;;;;;15.49;83.67;100770.81;5082393;27;46118;-67
2024/03/15 07:24:01;;;;;;;;;1.00;1.00;;;;;15.54;83.57;100782.19;5079136;27;45310;-67
2024/03/15 07:26:26;;;;;;;;;1.00;1.00;;;;;15.54;83.50;100778.66;5074338;27;46133;-67
2024/03/15 07:28:52;;;;;;;;;0.50;0.50;;;;;15.54;83.54;100784.03;5077282;28;45582;-67
2024/03/15 07:31:18;;;;;;;;;2.50;2.50;;;;;15.54;83.73;100784.88;5078855;27;46295;-67
2024/03/15 07:33:44;;;;;;;;;3.25;2.00;;;;;15.49;83.53;100776.19;5079192;27;45511;-67
2024/03/15 07:36:13;;;;;;;;;3.25;2.00;;;;;15.54;83.50;100782.19;5078677;27;45451;-67
2024/03/15 07:38:41;;;;;;;;;1.50;1.25;;;;;15.55;83.53;100785.75;5077430;27;45444;-67
2024/03/15 07:41:10;;;;;;;;;2.00;2.00;;;;;15.56;83.38;100782.13;5077096;27;46052;-65
2024/03/15 07:43:36;;;;;;;;;1.75;1.00;;;;;15.55;83.37;100791.13;5079377;27;45457;-66
2024/03/15 07:46:01;;;;;;;;;1.50;1.50;;;;;15.59;83.27;100794.56;5077750;27;45454;-66
2024/03/15 07:48:28;;;;;;;;;1.75;1.75;;;;;15.56;83.31;100796.44;5081432;27;45361;-66
2024/03/15 07:50:53;;;;;;;;;3.00;1.00;;;;;15.57;83.05;100803.56;5076642;27;46212;-67
2024/03/15 07:53:19;;;;;;;;;1.00;1.00;;;;;15.56;82.96;100790.19;5078635;27;45361;-67
2024/03/15 07:55:45;;;;;;;;;6.50;3.00;;;;;15.56;83.08;100796.44;5078599;28;45299;-67
2024/03/15 07:58:10;;;;;;;;;2.00;2.00;;;;;15.59;83.23;100799.94;5078640;27;45329;-67
2024/03/15 08:00:36;;;;;;;;;1.00;1.00;;;;;15.63;82.98;100790.75;5081972;27;46438;-67
2024/03/15 08:03:02;;;;;;;;;3.00;2.75;;;;;15.64;82.95;100798.75;5082176;27;45445;-67
2024/03/15 08:05:28;;;;;;;;;2.25;1.75;;;;;15.65;82.97;100794.22;5082254;27;45448;-67
2024/03/15 08:07:55;;;;;;;;;4.00;3.00;;;;;15.60;82.84;100789.06;5081625;27;45663;-67
2024/03/15 08:10:22;;;;;;;;;3.50;1.00;;;;;15.63;82.91;100793.44;5083359;27;47070;-67
2024/03/15 08:12:47;;;;;;;;;2.00;2.00;;;;;15.66;82.95;100801.34;5081292;27;45286;-67
2024/03/15 08:15:15;;;;;;;;;6.00;3.75;;;;;15.63;82.79;100807.75;5081948;28;45298;-67
2024/03/15 08:17:43;;;;;;;;;1.75;1.75;;;;;15.62;82.78;100810.50;5081241;27;45748;-67
2024/03/15 08:20:10;;;;;;;;;3.00;1.00;;;;;15.65;82.89;100805.88;5082843;27;45427;-68
2024/03/15 08:22:37;;;;;;;;;2.50;0.25;;;;;15.67;83.13;100813.84;5088909;27;45447;-67
2024/03/15 08:25:02;;;;;;;;;2.00;1.50;;;;;15.66;83.32;100806.72;5081836;27;45482;-67
2024/03/15 08:27:29;;;;;;;;;4.00;1.00;;;;;15.68;83.38;100819.13;5080488;27;45401;-67
2024/03/15 08:29:56;;;;;;;;;1.00;1.00;;;;;15.67;83.66;100819.22;5079711;28;46066;-67
2024/03/15 08:32:22;;;;;;;;;3.00;1.25;;;;;15.68;83.77;100829.03;5081608;27;45469;-67
2024/03/15 08:34:48;;;;;;;;;4.50;2.00;;;;;15.68;84.47;100823.66;5081666;27;45511;-67
2024/03/15 08:37:14;;;;;;;;;4.00;2.25;;;;;15.65;85.03;100819.31;5077961;27;45481;-67
2024/03/15 08:39:39;;;;;;;;;4.75;2.00;;;;;15.67;85.25;100821.91;5083237;27;45497;-67
2024/03/15 08:42:05;;;;;;;;;1.00;1.00;;;;;15.66;85.64;100825.56;5080828;28;45366;-67
2024/03/15 08:44:32;;;;;;;;;1.25;1.00;;;;;15.65;85.79;100827.41;5084119;27;45386;-67
2024/03/15 08:46:57;;;;;;;;;3.00;1.50;;;;;15.67;86.08;100825.50;5092128;27;45627;-67
2024/03/15 08:49:23;;;;;;;;;2.50;1.25;;;;;15.64;85.87;100831.03;5085382;27;45426;-67
2024/03/15 08:51:49;;;;;;;;;2.50;2.00;;;;;15.61;86.02;100825.81;5087868;27;45600;-67
2024/03/15 08:54:15;;;;;;;;;4.50;3.25;;;;;15.61;86.25;100838.41;5081063;27;45415;-67
2024/03/15 08:56:40;;;;;;;;;2.50;2.00;;;;;15.60;86.63;100832.13;5080945;27;45366;-67
2024/03/15 08:59:06;;;;;;;;;5.00;2.00;;;;;15.57;86.31;100829.63;5081250;28;45991;-67
2024/03/15 09:01:35;;;;;;;;;4.75;2.00;;;;;15.63;86.31;100834.66;5081203;27;45396;-67
2024/03/15 09:04:07;;;;;;;;;3.00;2.25;;;;;15.61;86.66;100828.50;5081417;27;45385;-67
2024/03/15 09:06:36;;;;;;;;;3.25;2.00;;;;;15.66;86.77;100836.34;5081139;27;45546;-67
2024/03/15 09:09:13;;;;;;;;;2.00;2.00;;;;;15.69;86.68;100838.88;5080254;27;45423;-67
2024/03/15 09:11:39;;;;;;;;;6.00;3.00;;;;;15.70;86.36;100838.78;5085107;27;45414;-67
2024/03/15 09:14:06;;;;;;;;;4.00;2.50;;;;;15.69;86.13;100828.09;5081401;27;45355;-67
2024/03/15 09:16:32;;;;;;;;;2.25;2.25;;;;;15.73;86.24;100835.06;5080687;27;45473;-68
2024/03/15 09:18:59;;;;;;;;;2.25;2.00;;;;;15.72;86.16;100836.03;5080918;27;47278;-67
2024/03/15 09:21:26;;;;;;;;;3.00;1.25;;;;;15.73;85.95;100835.91;5085330;27;45492;-67
2024/03/15 09:23:51;;;;;;;;;3.75;2.00;;;;;15.73;86.21;100841.28;5081463;27;45414;-67
2024/03/15 09:26:20;;;;;;;;;2.25;2.25;;;;;15.74;86.24;100845.72;5078924;27;62978;-68
2024/03/15 09:28:47;;;;;;;;;3.25;2.00;;;;;15.71;87.02;100832.44;5080884;27;46357;-68
2024/03/15 09:31:14;;;;;;;;;4.00;2.00;;;;;15.72;86.56;100833.34;5079190;27;45712;-68
2024/03/15 09:33:42;;;;;;;;;4.25;1.75;;;;;15.74;86.75;100836.81;5079950;28;45474;-68
2024/03/15 09:36:13;;;;;;;;;3.75;3.00;;;;;15.78;86.78;100838.41;5080167;27;45322;-69
2024/03/15 09:38:39;;;;;;;;;2.00;2.00;;;;;15.80;86.90;100839.19;5079489;27;46353;-68
2024/03/15 09:41:07;;;;;;;;;3.00;1.00;;;;;15.80;86.91;100838.31;5078590;27;45500;-68
2024/03/15 09:43:33;;;;;;;;;5.00;2.00;;;;;15.85;87.01;100834.41;5079960;27;45256;-68
2024/03/15 09:46:02;;;;;;;;;5.00;2.50;;;;;15.87;86.76;100837.94;5077920;27;45439;-68
2024/03/15 09:48:31;;;;;;;;;2.75;1.00;;;;;15.89;86.55;100825.25;5079373;27;46207;-68
2024/03/15 09:51:00;;;;;;;;;4.50;1.00;;;;;15.92;86.47;100838.56;5079052;27;45454;-68
2024/03/15 09:53:26;;;;;;;;;4.75;2.00;;;;;15.94;86.42;100827.72;5080115;27;45322;-68
2024/03/15 09:55:52;;;;;;;;;3.25;2.25;;;;;15.95;86.61;100828.56;5080189;28;49153;-68
2024/03/15 09:58:20;;;;;;;;;3.00;2.00;;;;;15.97;86.30;100823.97;5080141;27;46349;-68
2024/03/15 10:00:45;;;;;;;;;1.00;1.00;;;;;15.93;86.00;100821.44;5065867;28;45652;-68
2024/03/15 10:03:11;;;;;;;;;4.00;2.00;;;;;15.96;85.89;100833.00;5078681;27;57190;-67
2024/03/15 10:05:36;;;;;;;;;2.25;2.25;;;;;15.99;86.17;100835.50;5079784;27;45373;-68
2024/03/15 10:08:05;;;;;;;;;3.25;3.00;;;;;15.97;86.17;100826.66;5079122;27;47092;-67
2024/03/15 10:10:31;;;;;;;;;2.00;2.00;;;;;16.04;86.01;100828.09;5084011;27;45652;-67
2024/03/15 10:12:57;;;;;;;;;2.75;2.50;;;;;16.02;85.73;100829.97;5079436;27;45318;-66
2024/03/15 10:15:23;;;;;;;;;1.25;1.00;;;;;16.04;85.73;100828.09;5079922;27;45404;-69
2024/03/15 10:17:52;;;;;;;;;3.00;1.00;;;;;16.03;85.63;100824.50;5078968;27;46787;-67
2024/03/15 10:20:22;;;;;;;;;3.75;2.00;;;;;16.09;85.55;100826.00;5079411;27;45381;-67
2024/03/15 10:22:51;;;;;;;;;2.50;1.50;;;;;16.10;85.02;100830.44;5075094;27;45762;-67
2024/03/15 10:25:20;;;;;;;;;1.50;1.50;;;;;16.10;84.71;100828.63;5079943;27;45531;-67
2024/03/15 10:27:48;;;;;;;;;1.25;1.00;;;;;16.10;84.66;100828.63;5079372;28;46619;-67
2024/03/15 10:30:22;;;;;;;;;1.00;1.00;;;;;16.14;84.13;100831.13;5079276;27;45612;-67
2024/03/15 10:32:49;;;;;;;;;1.75;1.50;;;;;16.14;83.96;100829.31;5079273;27;45461;-68
2024/03/15 10:35:15;;;;;;;;;3.50;1.75;;;;;16.15;83.90;100833.75;5095103;27;45452;-67
2024/03/15 10:37:44;;;;;;;;;2.00;2.00;;;;;16.19;83.73;100827.25;5078502;27;46377;-67
2024/03/15 10:40:13;;;;;;;;;3.00;1.25;;;;;16.22;83.98;100826.19;5079776;27;45362;-67
2024/03/15 10:42:46;;;;;;;;;3.75;1.75;;;;;16.28;83.50;100828.56;5078980;27;45464;-67
2024/03/15 10:45:13;;;;;;;;;4.00;1.75;;;;;16.30;83.97;100830.22;5079004;27;45591;-67
2024/03/15 10:47:43;;;;;;;;;3.00;1.75;;;;;16.36;83.35;100828.16;5079168;27;45574;-67
2024/03/15 10:50:11;;;;;;;;;3.00;3.00;;;;;16.40;82.89;100818.94;5079792;27;45332;-67
2024/03/15 10:52:57;;;;;;;;;4.25;2.50;;;;;16.41;83.19;100818.84;5079187;27;45439;-67
2024/03/15 10:55:31;;;;;;;;;7.00;3.00;;;;;16.46;82.86;100819.47;5073975;27;45405;-67
2024/03/15 10:58:00;;;;;;;;;5.00;1.25;;;;;16.50;81.86;100817.47;5077119;28;45330;-67
2024/03/15 11:00:29;;;;;;;;;4.00;2.00;;;;;16.55;81.22;100817.22;5078275;27;45597;-67
2024/03/15 11:03:11;;;;;;;;;2.50;1.00;;;;;16.58;81.19;100819.72;5076860;28;45385;-63
2024/03/15 11:05:37;;;;;;;;;2.00;1.00;;;;;16.60;79.82;100813.28;5077650;27;45588;-67
2024/03/15 11:08:04;;;;;;;;;3.00;1.00;;;;;16.63;79.98;100821.19;5081468;27;48300;-67
2024/03/15 11:10:31;;;;;;;;;1.75;1.50;;;;;16.66;79.91;100821.03;5078838;27;45446;-68
2024/03/15 11:12:59;;;;;;;;;4.00;2.75;;;;;16.67;79.46;100811.13;5077848;27;45355;-68
2024/03/15 11:15:24;;;;;;;;;6.25;2.00;;;;;16.68;79.45;100813.72;5076187;27;45595;-68
2024/03/15 11:18:09;;;;;;;;;2.00;2.00;;;;;16.73;79.86;100816.16;5077408;28;47082;-68
2024/03/15 11:20:49;;;;;;;;;2.50;1.50;;;;;16.74;79.11;100815.22;5074898;28;45695;-68
2024/03/15 11:23:20;;;;;;;;;3.50;3.00;;;;;16.77;78.98;100819.53;5076601;28;45448;-67
2024/03/15 11:25:54;;;;;;;;;2.00;1.00;;;;;16.78;79.47;100814.06;5075537;27;45633;-68
2024/03/15 11:28:21;;;;;;;;;2.00;2.00;;;;;16.79;79.35;100813.13;5077079;28;45459;-68